createdAt,value
2018-10-15T00:00:18.373Z,11.80
2018-10-15T00:02:47.956Z,11.70
2018-10-15T00:05:17.684Z,11.60
2018-10-15T00:07:47.413Z,11.60
2018-10-15T00:10:17.154Z,11.60
2018-10-15T00:12:46.890Z,11.50
2018-10-15T00:15:19.679Z,11.40
2018-10-15T00:17:49.626Z,11.40
2018-10-15T00:20:19.792Z,11.40
2018-10-15T00:22:49.940Z,11.40
2018-10-15T00:25:19.640Z,11.40
2018-10-15T00:27:49.376Z,11.40
2018-10-15T00:30:19.089Z,11.40
2018-10-15T00:32:48.831Z,11.40
2018-10-15T00:35:18.527Z,11.40
2018-10-15T00:37:48.262Z,11.40
2018-10-15T00:40:17.955Z,11.40
2018-10-15T00:42:47.679Z,11.40
2018-10-15T00:45:17.393Z,11.40
2018-10-15T00:47:47.091Z,11.40
2018-10-15T00:50:16.819Z,11.40
2018-10-15T00:52:46.561Z,11.40
2018-10-15T00:55:16.293Z,11.30
2018-10-15T00:57:46.032Z,11.30
2018-10-15T01:00:16.897Z,11.30
2018-10-15T01:02:47.163Z,11.20
2018-10-15T01:05:16.888Z,11.20
2018-10-15T01:07:46.583Z,11.10
2018-10-15T01:10:16.283Z,11.00
2018-10-15T01:12:46.009Z,11.00
2018-10-15T01:15:15.689Z,11.00
2018-10-15T01:17:45.401Z,11.00
2018-10-15T01:20:15.118Z,10.90
2018-10-15T01:22:44.901Z,10.90
2018-10-15T01:25:14.629Z,10.90
2018-10-15T01:27:44.333Z,10.90
2018-10-15T01:30:14.065Z,10.90
2018-10-15T01:32:43.849Z,10.90
2018-10-15T01:35:13.536Z,10.80
2018-10-15T01:37:43.252Z,10.80
2018-10-15T01:40:12.982Z,10.80
2018-10-15T01:42:42.643Z,10.80
2018-10-15T01:45:12.409Z,10.80
2018-10-15T01:47:42.134Z,10.80
2018-10-15T01:50:11.842Z,10.70
2018-10-15T01:52:41.518Z,10.70
2018-10-15T01:55:11.288Z,10.60
2018-10-15T01:57:40.964Z,10.60
2018-10-15T02:00:10.928Z,10.60
2018-10-15T02:02:40.604Z,10.50
2018-10-15T02:05:10.566Z,10.50
2018-10-15T02:07:40.326Z,10.50
2018-10-15T02:10:10.074Z,10.40
2018-10-15T02:12:39.766Z,10.40
2018-10-15T02:15:09.503Z,10.40
2018-10-15T02:17:39.226Z,10.40
2018-10-15T02:20:09.713Z,10.40
2018-10-15T02:22:39.635Z,10.40
2018-10-15T02:25:09.778Z,10.30
2018-10-15T02:27:39.502Z,10.20
2018-10-15T02:30:10.222Z,10.20
2018-10-15T02:32:40.538Z,10.20
2018-10-15T02:35:10.234Z,10.20
2018-10-15T02:37:41.097Z,10.20
2018-10-15T02:40:10.818Z,10.30
2018-10-15T02:42:40.508Z,10.30
2018-10-15T02:45:10.803Z,10.30
2018-10-15T02:47:40.530Z,10.20
2018-10-15T02:50:11.150Z,10.20
2018-10-15T02:52:41.510Z,10.10
2018-10-15T02:55:11.310Z,10.10
2018-10-15T02:57:41.058Z,10.00
2018-10-15T03:00:12.662Z,10.00
2018-10-15T03:02:43.249Z,10.10
2018-10-15T03:05:13.416Z,10.10
2018-10-15T03:07:43.430Z,10.00
2018-10-15T03:10:13.185Z,10.00
2018-10-15T03:12:42.920Z,10.00
2018-10-15T03:15:12.638Z,10.00
2018-10-15T03:17:42.338Z,9.90
2018-10-15T03:20:12.910Z,9.90
2018-10-15T03:22:42.978Z,9.90
2018-10-15T03:25:15.578Z,9.90
2018-10-15T03:27:45.286Z,9.80
2018-10-15T03:30:15.032Z,9.80
2018-10-15T03:32:45.055Z,9.80
2018-10-15T03:35:14.774Z,9.80
2018-10-15T03:37:44.482Z,9.70
2018-10-15T03:40:14.150Z,9.70
2018-10-15T03:42:43.950Z,9.60
2018-10-15T03:45:13.662Z,9.50
2018-10-15T03:47:43.344Z,9.50
2018-10-15T03:50:13.022Z,9.50
2018-10-15T03:52:42.741Z,9.50
2018-10-15T03:55:12.406Z,9.50
2018-10-15T03:57:42.166Z,9.50
2018-10-15T04:00:11.982Z,9.50
2018-10-15T04:02:41.819Z,9.50
2018-10-15T04:05:11.572Z,9.50
2018-10-15T04:07:41.354Z,9.60
2018-10-15T04:10:11.060Z,9.50
2018-10-15T04:12:40.775Z,9.50
2018-10-15T04:15:10.759Z,9.50
2018-10-15T04:17:40.485Z,9.50
2018-10-15T04:20:10.280Z,9.50
2018-10-15T04:22:46.145Z,9.40
2018-10-15T04:25:17.259Z,9.50
2018-10-15T04:27:47.117Z,9.40
2018-10-15T04:30:17.519Z,9.40
2018-10-15T04:32:47.929Z,9.40
2018-10-15T04:35:17.634Z,9.40
2018-10-15T04:37:47.341Z,9.40
2018-10-15T04:40:17.033Z,9.40
2018-10-15T04:42:46.807Z,9.40
2018-10-15T04:45:16.560Z,9.30
2018-10-15T04:47:46.315Z,9.30
2018-10-15T04:50:15.979Z,9.40
2018-10-15T04:52:45.722Z,9.30
2018-10-15T04:55:15.669Z,9.30
2018-10-15T04:57:45.209Z,9.30
2018-10-15T05:00:14.919Z,9.20
2018-10-15T05:02:44.635Z,9.20
2018-10-15T05:05:14.381Z,9.20
2018-10-15T05:07:44.155Z,9.20
2018-10-15T05:10:14.081Z,9.20
2018-10-15T05:12:43.785Z,9.20
2018-10-15T05:15:13.550Z,9.20
2018-10-15T05:17:43.278Z,9.20
2018-10-15T05:20:13.552Z,9.20
2018-10-15T05:22:43.289Z,9.10
2018-10-15T05:25:13.066Z,9.10
2018-10-15T05:27:42.762Z,9.10
2018-10-15T05:30:12.598Z,9.10
2018-10-15T05:32:42.205Z,9.10
2018-10-15T05:35:12.835Z,9.00
2018-10-15T05:37:43.683Z,9.00
2018-10-15T05:40:13.361Z,9.00
2018-10-15T05:42:43.176Z,9.00
2018-10-15T05:45:13.489Z,9.00
2018-10-15T05:47:43.210Z,9.00
2018-10-15T05:50:13.641Z,9.00
2018-10-15T05:52:43.641Z,9.00
2018-10-15T05:55:13.555Z,9.00
2018-10-15T05:57:43.339Z,8.90
2018-10-15T06:00:14.732Z,9.00
2018-10-15T06:02:44.611Z,9.00
2018-10-15T06:05:14.343Z,9.00
2018-10-15T06:07:44.042Z,9.00
2018-10-15T06:10:15.202Z,9.10
2018-10-15T06:12:49.753Z,9.10
2018-10-15T06:15:19.493Z,9.10
2018-10-15T06:17:49.371Z,9.10
2018-10-15T06:20:19.097Z,9.20
2018-10-15T06:22:48.833Z,9.30
2018-10-15T06:25:18.487Z,9.40
2018-10-15T06:27:48.154Z,9.50
2018-10-15T06:30:18.257Z,9.50
2018-10-15T06:32:47.910Z,9.60
2018-10-15T06:35:17.716Z,9.70
2018-10-15T06:37:47.423Z,9.80
2018-10-15T06:40:17.186Z,9.80
2018-10-15T06:42:46.875Z,9.90
2018-10-15T06:45:16.680Z,9.90
2018-10-15T06:47:46.309Z,10.00
2018-10-15T06:50:17.379Z,10.10
2018-10-15T06:52:47.104Z,10.10
2018-10-15T06:55:16.868Z,10.20
2018-10-15T06:57:46.523Z,10.30
2018-10-15T07:00:16.330Z,10.40
2018-10-15T07:02:46.053Z,10.50
2018-10-15T07:05:15.824Z,10.50
2018-10-15T07:07:45.611Z,10.60
2018-10-15T07:10:15.371Z,10.70
2018-10-15T07:12:45.020Z,10.80
2018-10-15T07:15:14.931Z,10.90
2018-10-15T07:17:44.697Z,10.90
2018-10-15T07:20:14.591Z,11.00
2018-10-15T07:22:44.409Z,11.00
2018-10-15T07:25:20.673Z,11.10
2018-10-15T07:27:50.422Z,11.20
2018-10-15T07:30:20.293Z,11.30
2018-10-15T07:32:50.442Z,11.40
2018-10-15T07:35:20.255Z,11.50
2018-10-15T07:37:50.111Z,11.50
2018-10-15T07:40:19.993Z,11.60
2018-10-15T07:42:49.769Z,11.70
2018-10-15T07:45:19.484Z,11.80
2018-10-15T07:47:49.238Z,11.90
2018-10-15T07:50:19.219Z,12.00
2018-10-15T07:52:48.882Z,12.00
2018-10-15T07:55:18.655Z,12.10
2018-10-15T07:57:48.460Z,12.20
2018-10-15T08:00:20.498Z,12.30
2018-10-15T08:02:50.785Z,12.40
2018-10-15T08:05:20.741Z,12.50
2018-10-15T08:07:50.881Z,12.60
2018-10-15T08:10:20.759Z,12.70
2018-10-15T08:12:50.585Z,12.80
2018-10-15T08:15:21.077Z,12.80
2018-10-15T08:17:50.872Z,13.00
2018-10-15T08:20:20.885Z,13.00
2018-10-15T08:22:50.782Z,13.10
2018-10-15T08:25:20.505Z,13.10
2018-10-15T08:27:50.255Z,13.20
2018-10-15T08:30:20.475Z,13.30
2018-10-15T08:32:50.255Z,13.40
2018-10-15T08:35:19.989Z,13.50
2018-10-15T08:37:49.656Z,13.60
2018-10-15T08:40:20.344Z,13.70
2018-10-15T08:42:51.482Z,13.80
2018-10-15T08:45:22.766Z,13.90
2018-10-15T08:47:53.009Z,14.00
2018-10-15T08:50:22.836Z,14.10
2018-10-15T08:52:52.778Z,14.30
2018-10-15T08:55:22.485Z,14.40
2018-10-15T08:57:52.378Z,14.50
2018-10-15T09:00:23.722Z,14.60
2018-10-15T09:02:53.824Z,14.80
2018-10-15T09:05:23.494Z,14.90
2018-10-15T09:07:53.481Z,15.00
2018-10-15T09:10:23.042Z,15.10
2018-10-15T09:12:52.974Z,15.30
2018-10-15T09:15:23.798Z,15.40
2018-10-15T09:17:53.537Z,15.50
2018-10-15T09:20:23.354Z,15.60
2018-10-15T09:22:53.254Z,15.70
2018-10-15T09:25:23.034Z,15.80
2018-10-15T09:27:52.738Z,15.90
2018-10-15T09:30:23.534Z,16.10
2018-10-15T09:32:53.277Z,16.20
2018-10-15T09:35:22.998Z,16.30
2018-10-15T09:37:58.767Z,16.40
2018-10-15T09:40:28.719Z,16.60
2018-10-15T09:42:58.514Z,16.70
2018-10-15T09:45:28.512Z,16.80
2018-10-15T09:47:58.190Z,16.90
2018-10-15T09:50:28.013Z,17.10
2018-10-15T09:52:57.879Z,17.20
2018-10-15T09:55:27.610Z,17.30
2018-10-15T09:57:57.452Z,17.40
2018-10-15T10:00:32.417Z,17.60
2018-10-15T10:03:02.312Z,17.70
2018-10-15T10:05:31.958Z,17.80
2018-10-15T10:08:01.839Z,17.90
2018-10-15T10:10:31.547Z,18.00
2018-10-15T10:13:01.326Z,18.10
2018-10-15T10:15:31.186Z,18.30
2018-10-15T10:18:00.966Z,18.40
2018-10-15T10:20:30.693Z,18.60
2018-10-15T10:23:00.474Z,18.70
2018-10-15T10:25:30.149Z,18.80
2018-10-15T10:27:59.949Z,18.90
2018-10-15T10:30:29.680Z,19.00
2018-10-15T10:32:59.555Z,19.20
2018-10-15T10:36:08.848Z,19.30
2018-10-15T10:38:55.790Z,19.50
2018-10-15T10:41:25.494Z,19.60
2018-10-15T10:43:55.227Z,19.80
2018-10-15T10:46:25.746Z,19.90
2018-10-15T10:48:55.627Z,20.00
2018-10-15T10:51:25.314Z,20.10
2018-10-15T10:53:55.063Z,20.20
2018-10-15T10:56:24.824Z,20.30
2018-10-15T10:58:54.561Z,20.40
2018-10-15T11:01:24.410Z,20.50
2018-10-15T11:03:54.231Z,20.60
2018-10-15T11:06:24.020Z,20.80
2018-10-15T11:08:53.795Z,20.80
2018-10-15T11:11:23.513Z,21.00
2018-10-15T11:13:53.331Z,21.10
2018-10-15T11:16:23.094Z,21.20
2018-10-15T11:18:52.845Z,21.30
2018-10-15T11:21:22.495Z,21.40
2018-10-15T11:23:52.227Z,21.60
2018-10-15T11:26:21.914Z,21.60
2018-10-15T11:28:51.781Z,21.70
2018-10-15T11:31:21.557Z,21.80
2018-10-15T11:33:51.482Z,21.90
2018-10-15T11:36:21.297Z,22.00
2018-10-15T11:38:51.003Z,22.10
2018-10-15T11:41:20.750Z,22.30
2018-10-15T11:43:50.479Z,22.30
2018-10-15T11:46:20.166Z,22.40
2018-10-15T11:48:49.911Z,22.50
2018-10-15T11:51:19.672Z,22.60
2018-10-15T11:53:49.434Z,22.60
2018-10-15T11:56:19.147Z,22.70
2018-10-15T11:58:48.939Z,22.80
2018-10-15T12:01:18.626Z,22.90
2018-10-15T12:03:48.339Z,23.00
2018-10-15T12:06:18.081Z,23.00
2018-10-15T12:08:47.819Z,23.10
2018-10-15T12:11:17.811Z,23.00
2018-10-15T12:13:47.733Z,23.00
2018-10-15T12:16:17.487Z,23.00
2018-10-15T12:18:47.211Z,23.10
2018-10-15T12:21:16.969Z,23.10
2018-10-15T12:23:46.724Z,23.20
2018-10-15T12:26:16.429Z,23.30
2018-10-15T12:28:46.191Z,23.60
2018-10-15T12:31:15.969Z,23.90
2018-10-15T12:33:45.688Z,24.30
2018-10-15T12:36:15.475Z,24.70
2018-10-15T12:38:45.298Z,24.90
2018-10-15T12:41:15.020Z,25.00
2018-10-15T12:43:44.952Z,25.00
2018-10-15T12:46:15.049Z,25.00
2018-10-15T12:48:44.854Z,24.90
2018-10-15T12:51:14.566Z,24.90
2018-10-15T12:53:44.345Z,24.80
2018-10-15T12:56:14.648Z,24.80
2018-10-15T12:58:44.392Z,24.80
2018-10-15T13:01:14.138Z,24.90
2018-10-15T13:03:43.859Z,25.10
2018-10-15T13:06:14.079Z,25.30
2018-10-15T13:08:43.971Z,25.40
2018-10-15T13:11:13.745Z,25.40
2018-10-15T13:13:43.520Z,25.40
2018-10-15T13:16:13.496Z,25.20
2018-10-15T13:18:43.304Z,24.90
2018-10-15T13:21:13.206Z,24.80
2018-10-15T13:23:43.042Z,24.60
2018-10-15T13:26:12.889Z,24.60
2018-10-15T13:28:42.762Z,24.50
2018-10-15T13:31:12.676Z,24.50
2018-10-15T13:33:42.430Z,24.60
2018-10-15T13:36:12.214Z,24.60
2018-10-15T13:38:41.918Z,24.60
2018-10-15T13:41:11.935Z,24.70
2018-10-15T13:43:41.638Z,24.60
2018-10-15T13:46:11.767Z,24.60
2018-10-15T13:48:41.482Z,24.50
2018-10-15T13:51:11.215Z,24.40
2018-10-15T13:53:40.960Z,24.20
2018-10-15T13:56:10.657Z,24.00
2018-10-15T13:58:43.217Z,23.80
2018-10-15T14:01:13.088Z,23.70
2018-10-15T14:03:43.081Z,23.50
2018-10-15T14:06:12.881Z,23.30
2018-10-15T14:08:42.707Z,23.20
2018-10-15T14:11:13.565Z,23.10
2018-10-15T14:13:43.458Z,23.00
2018-10-15T14:16:13.380Z,22.80
2018-10-15T14:18:43.188Z,22.70
2018-10-15T14:21:13.122Z,22.70
2018-10-15T14:23:42.900Z,22.60
2018-10-15T14:26:12.651Z,22.60
2018-10-15T14:28:42.364Z,22.60
2018-10-15T14:31:12.316Z,22.50
2018-10-15T14:33:41.971Z,22.50
2018-10-15T14:36:11.678Z,22.50
2018-10-15T14:38:41.415Z,22.50
2018-10-15T14:41:11.326Z,22.40
2018-10-15T14:43:41.063Z,22.40
2018-10-15T14:46:10.843Z,22.30
2018-10-15T14:48:40.706Z,22.20
2018-10-15T14:51:10.596Z,22.10
2018-10-15T14:53:40.334Z,22.00
2018-10-15T14:56:10.050Z,22.00
2018-10-15T14:58:39.833Z,22.10
2018-10-15T15:01:09.563Z,22.10
2018-10-15T15:03:39.323Z,22.10
2018-10-15T15:06:09.206Z,22.20
2018-10-15T15:08:38.878Z,22.20
2018-10-15T15:11:19.792Z,22.30
2018-10-15T15:14:00.966Z,22.30
2018-10-15T15:16:30.746Z,22.60
2018-10-15T15:19:00.643Z,23.80
2018-10-15T15:21:30.402Z,25.00
2018-10-15T15:24:00.515Z,25.50
2018-10-15T15:26:30.263Z,25.40
2018-10-15T15:28:59.978Z,24.90
2018-10-15T15:31:29.746Z,24.30
2018-10-15T15:33:59.479Z,23.80
2018-10-15T15:36:30.064Z,23.20
2018-10-15T15:38:59.838Z,22.80
2018-10-15T15:41:29.644Z,22.40
2018-10-15T15:43:59.370Z,22.00
2018-10-15T15:46:29.061Z,21.80
2018-10-15T15:48:58.798Z,21.60
2018-10-15T15:51:28.526Z,21.40
2018-10-15T15:53:58.333Z,21.20
2018-10-15T15:56:28.262Z,21.00
2018-10-15T15:58:58.126Z,20.90
2018-10-15T16:01:28.107Z,20.80
2018-10-15T16:03:57.816Z,20.60
2018-10-15T16:06:27.614Z,20.50
2018-10-15T16:08:57.486Z,20.30
2018-10-15T16:11:27.248Z,20.20
2018-10-15T16:13:56.907Z,20.00
2018-10-15T16:16:27.107Z,19.90
2018-10-15T16:18:56.844Z,19.80
2018-10-15T16:21:26.664Z,19.70
2018-10-15T16:23:56.395Z,19.60
2018-10-15T16:26:26.257Z,19.50
2018-10-15T16:28:56.067Z,19.40
2018-10-15T16:31:25.912Z,19.30
2018-10-15T16:33:55.746Z,19.10
2018-10-15T16:36:25.513Z,19.00
2018-10-15T16:38:55.301Z,18.90
2018-10-15T16:41:25.049Z,18.70
2018-10-15T16:43:54.839Z,18.60
2018-10-15T16:46:24.813Z,18.50
2018-10-15T16:48:54.622Z,18.40
2018-10-15T16:51:28.308Z,18.30
2018-10-15T16:53:58.020Z,18.20
2018-10-15T16:56:27.774Z,18.10
2018-10-15T16:58:57.665Z,18.00
2018-10-15T17:01:27.392Z,17.90
2018-10-15T17:03:57.121Z,17.80
2018-10-15T17:06:26.860Z,17.70
2018-10-15T17:08:56.986Z,17.60
2018-10-15T17:11:26.760Z,17.50
2018-10-15T17:13:56.567Z,17.40
2018-10-15T17:16:26.316Z,17.40
2018-10-15T17:18:56.052Z,17.30
2018-10-15T17:21:25.861Z,17.20
2018-10-15T17:23:55.608Z,17.10
2018-10-15T17:26:25.354Z,17.00
2018-10-15T17:28:55.122Z,16.90
2018-10-15T17:31:24.925Z,16.80
2018-10-15T17:33:54.643Z,16.80
2018-10-15T17:36:24.378Z,16.70
2018-10-15T17:38:54.112Z,16.60
2018-10-15T17:41:23.998Z,16.60
2018-10-15T17:43:53.814Z,16.50
2018-10-15T17:46:23.602Z,16.50
2018-10-15T17:48:53.304Z,16.50
2018-10-15T17:51:23.062Z,16.40
2018-10-15T17:53:53.616Z,16.40
2018-10-15T17:56:23.378Z,16.30
2018-10-15T17:58:53.228Z,16.20
2018-10-15T18:01:23.019Z,16.10
2018-10-15T18:03:52.762Z,16.10
2018-10-15T18:06:22.513Z,16.10
2018-10-15T18:08:52.370Z,16.10
2018-10-15T18:11:22.385Z,16.00
2018-10-15T18:13:52.159Z,16.00
2018-10-15T18:16:22.226Z,15.90
2018-10-15T18:18:51.935Z,15.90
2018-10-15T18:21:21.824Z,15.80
2018-10-15T18:23:51.630Z,15.80
2018-10-15T18:26:21.464Z,15.70
2018-10-15T18:28:51.338Z,15.60
2018-10-15T18:31:21.128Z,15.60
2018-10-15T18:33:51.003Z,15.50
2018-10-15T18:36:20.781Z,15.40
2018-10-15T18:38:50.587Z,15.40
2018-10-15T18:41:20.506Z,15.40
2018-10-15T18:43:50.387Z,15.40
2018-10-15T18:46:20.164Z,15.40
2018-10-15T18:48:50.037Z,15.30
2018-10-15T18:51:19.931Z,15.30
2018-10-15T18:53:49.704Z,15.20
2018-10-15T18:56:19.611Z,15.20
2018-10-15T18:58:49.358Z,15.10
2018-10-15T19:01:19.232Z,15.00
2018-10-15T19:03:49.034Z,15.00
2018-10-15T19:06:19.414Z,14.90
2018-10-15T19:08:49.228Z,14.90
2018-10-15T19:11:19.049Z,14.90
2018-10-15T19:13:49.273Z,14.90
2018-10-15T19:16:19.115Z,14.90
2018-10-15T19:18:48.886Z,14.80
2018-10-15T19:21:18.800Z,14.80
2018-10-15T19:23:48.653Z,14.80
2018-10-15T19:26:18.493Z,14.70
2018-10-15T19:28:48.587Z,14.60
2018-10-15T19:31:18.674Z,14.60
2018-10-15T19:33:48.652Z,14.60
2018-10-15T19:36:21.572Z,14.50
2018-10-15T19:38:51.519Z,14.50
2018-10-15T19:41:21.377Z,14.40
2018-10-15T19:43:51.155Z,14.40
2018-10-15T19:46:20.971Z,14.30
2018-10-15T19:48:50.796Z,14.30
2018-10-15T19:51:20.645Z,14.20
2018-10-15T19:53:50.389Z,14.20
2018-10-15T19:56:20.338Z,14.10
2018-10-15T19:58:50.084Z,14.10
2018-10-15T20:01:19.952Z,14.00
2018-10-15T20:03:49.900Z,14.00
2018-10-15T20:06:19.630Z,14.00
2018-10-15T20:08:49.742Z,14.00
2018-10-15T20:11:19.851Z,13.90
2018-10-15T20:13:50.149Z,13.90
2018-10-15T20:16:19.972Z,13.90
2018-10-15T20:18:49.969Z,13.80
2018-10-15T20:21:19.820Z,13.80
2018-10-15T20:23:49.661Z,13.70
2018-10-15T20:26:19.526Z,13.70
2018-10-15T20:28:49.436Z,13.70
2018-10-15T20:31:19.876Z,13.60
2018-10-15T20:33:49.775Z,13.60
2018-10-15T20:36:19.760Z,13.50
2018-10-15T20:38:49.526Z,13.50
2018-10-15T20:41:19.442Z,13.40
2018-10-15T20:43:49.214Z,13.40
2018-10-15T20:46:19.064Z,13.30
2018-10-15T20:48:48.837Z,13.30
2018-10-15T20:51:18.648Z,13.30
2018-10-15T20:53:48.474Z,13.20
2018-10-15T20:56:18.234Z,13.20
2018-10-15T20:58:48.016Z,13.20
2018-10-15T21:01:17.858Z,13.10
2018-10-15T21:03:47.654Z,13.10
2018-10-15T21:06:17.566Z,13.10
2018-10-15T21:08:47.339Z,13.00
2018-10-15T21:11:17.189Z,13.00
2018-10-15T21:13:47.053Z,12.90
2018-10-15T21:16:16.862Z,12.90
2018-10-15T21:18:46.651Z,12.90
2018-10-15T21:21:16.499Z,12.80
2018-10-15T21:23:46.710Z,12.70
2018-10-15T21:26:16.863Z,12.70
2018-10-15T21:28:46.725Z,12.70
2018-10-15T21:31:16.470Z,12.70
2018-10-15T21:33:46.250Z,12.60
2018-10-15T21:36:16.285Z,12.60
2018-10-15T21:38:46.010Z,12.50
2018-10-15T21:41:15.810Z,12.40
2018-10-15T21:43:45.792Z,12.30
2018-10-15T21:46:15.842Z,12.30
2018-10-15T21:48:45.654Z,12.30
2018-10-15T21:51:15.436Z,12.30
2018-10-15T21:53:45.230Z,12.30
2018-10-15T21:56:15.070Z,12.20
2018-10-15T21:58:44.990Z,12.20
2018-10-15T22:01:14.731Z,12.20
2018-10-15T22:03:44.535Z,12.20
2018-10-15T22:06:14.984Z,12.10
2018-10-15T22:08:44.866Z,12.10
2018-10-15T22:11:14.734Z,12.00
2018-10-15T22:13:44.427Z,11.90
2018-10-15T22:16:14.642Z,11.90
2018-10-15T22:18:44.600Z,11.70
2018-10-15T22:21:14.413Z,11.60
2018-10-15T22:23:44.271Z,11.60
2018-10-15T22:26:14.664Z,11.60
2018-10-15T22:28:44.399Z,11.60
2018-10-15T22:31:14.178Z,11.60
2018-10-15T22:33:43.938Z,11.60
2018-10-15T22:36:14.361Z,11.60
2018-10-15T22:38:44.050Z,11.70
2018-10-15T22:41:13.880Z,11.70
2018-10-15T22:43:43.582Z,11.70
2018-10-15T22:46:13.382Z,11.70
2018-10-15T22:48:43.382Z,11.70
2018-10-15T22:51:13.269Z,11.70
2018-10-15T22:53:43.148Z,11.70
2018-10-15T22:56:12.934Z,11.60
2018-10-15T22:58:42.690Z,11.60
2018-10-15T23:01:12.448Z,11.50
2018-10-15T23:03:42.194Z,11.50
2018-10-15T23:06:12.186Z,11.40
2018-10-15T23:08:42.014Z,11.50
2018-10-15T23:11:11.827Z,11.40
2018-10-15T23:13:41.542Z,11.40
2018-10-15T23:16:11.319Z,11.40
2018-10-15T23:18:41.077Z,11.40
2018-10-15T23:21:10.783Z,11.40
2018-10-15T23:23:40.596Z,11.40
2018-10-15T23:26:10.478Z,11.40
2018-10-15T23:28:40.261Z,11.40
2018-10-15T23:31:12.427Z,11.40
2018-10-15T23:33:43.187Z,11.30
2018-10-15T23:36:12.965Z,11.30
2018-10-15T23:38:42.807Z,11.30
2018-10-15T23:41:12.535Z,11.30
2018-10-15T23:43:42.347Z,11.30
2018-10-15T23:46:12.091Z,11.30
2018-10-15T23:48:41.867Z,11.20
2018-10-15T23:51:11.645Z,11.20
2018-10-15T23:53:41.355Z,11.10
2018-10-15T23:56:11.099Z,11.10
2018-10-15T23:58:40.815Z,11.10
